createdAt,value
2022-08-07T00:01:12.879Z,99.993896
2022-08-07T00:02:35.844Z,99.993896
2022-08-07T00:03:28.675Z,99.993896
2022-08-07T00:04:39.429Z,99.993896
2022-08-07T00:05:50.031Z,99.993896
2022-08-07T00:07:01.314Z,99.993896
2022-08-07T00:08:09.389Z,99.993896
2022-08-07T00:09:21.038Z,99.993896
2022-08-07T00:10:29.873Z,99.993896
2022-08-07T00:11:39.938Z,99.993896
2022-08-07T00:12:56.939Z,99.993896
2022-08-07T00:13:58.091Z,99.993896
2022-08-07T00:15:07.780Z,99.993896
2022-08-07T00:16:17.451Z,99.993896
2022-08-07T00:17:27.284Z,99.993896
2022-08-07T00:18:37.781Z,99.993896
2022-08-07T00:20:00.741Z,99.993896
2022-08-07T00:20:57.435Z,99.993896
2022-08-07T00:22:07.824Z,99.993896
2022-08-07T00:23:17.504Z,99.987793
2022-08-07T00:24:27.267Z,99.993896
2022-08-07T00:25:37.356Z,99.993896
2022-08-07T00:26:49.013Z,99.993896
2022-08-07T00:27:57.338Z,99.993896
2022-08-07T00:29:06.156Z,99.993896
2022-08-07T00:30:21.537Z,99.993896
2022-08-07T00:31:37.752Z,99.884033
2022-08-07T00:32:36.239Z,99.841309
2022-08-07T00:33:47.530Z,99.884033
2022-08-07T00:34:54.790Z,99.786377
2022-08-07T00:36:04.538Z,99.584961
2022-08-07T00:37:15.206Z,99.584961
2022-08-07T00:38:31.009Z,99.682617
2022-08-07T00:39:35.618Z,99.786377
2022-08-07T00:40:45.292Z,99.884033
2022-08-07T00:42:01.637Z,99.884033
2022-08-07T00:43:09.577Z,99.786377
2022-08-07T00:44:16.307Z,99.884033
2022-08-07T00:45:26.014Z,99.481201
2022-08-07T00:46:36.699Z,99.279785
2022-08-07T00:48:08.659Z,99.182129
2022-08-07T00:48:57.147Z,99.383545
2022-08-07T00:50:17.261Z,99.383545
2022-08-07T00:51:17.785Z,99.481201
2022-08-07T00:52:26.488Z,99.279785
2022-08-07T00:53:38.753Z,99.383545
2022-08-07T00:54:46.912Z,99.383545
2022-08-07T00:56:00.912Z,99.383545
2022-08-07T00:57:08.346Z,99.279785
2022-08-07T00:58:18.099Z,98.980713
2022-08-07T00:59:32.589Z,98.779297
2022-08-07T01:00:37.509Z,98.779297
2022-08-07T01:01:48.240Z,98.876953
2022-08-07T01:02:57.901Z,98.675537
2022-08-07T01:04:07.700Z,98.675537
2022-08-07T01:05:18.960Z,98.779297
2022-08-07T01:06:25.170Z,98.675537
2022-08-07T01:07:34.907Z,98.474121
2022-08-07T01:08:51.506Z,98.675537
2022-08-07T01:10:05.381Z,98.474121
2022-08-07T01:12:05.441Z,98.370361
2022-08-07T01:12:28.206Z,98.675537
2022-08-07T01:13:26.436Z,98.474121
2022-08-07T01:14:37.326Z,98.577881
2022-08-07T01:16:01.388Z,98.577881
2022-08-07T01:16:58.729Z,98.272705
2022-08-07T01:18:09.495Z,98.071289
2022-08-07T01:19:19.774Z,98.071289
2022-08-07T01:20:30.725Z,98.071289
2022-08-07T01:21:37.803Z,97.869873
2022-08-07T01:22:54.315Z,97.869873
2022-08-07T01:23:59.185Z,97.869873
2022-08-07T01:25:20.753Z,97.766113
2022-08-07T01:26:19.625Z,97.869873
2022-08-07T01:27:32.245Z,97.668457
2022-08-07T01:28:37.033Z,97.668457
2022-08-07T01:29:46.712Z,97.766113
2022-08-07T01:30:55.398Z,97.363281
2022-08-07T01:32:05.348Z,97.265625
2022-08-07T01:33:15.755Z,97.30835
2022-08-07T01:34:30.739Z,97.668457
2022-08-07T01:35:37.021Z,97.613525
2022-08-07T01:36:51.477Z,97.668457
2022-08-07T01:37:56.630Z,97.711182
2022-08-07T01:39:09.734Z,97.869873
2022-08-07T01:40:16.103Z,97.967529
2022-08-07T01:41:26.949Z,97.967529
2022-08-07T01:42:39.076Z,97.869873
2022-08-07T01:43:44.167Z,97.967529
2022-08-07T01:44:53.892Z,97.869873
2022-08-07T01:46:02.619Z,97.869873
2022-08-07T01:48:12.508Z,97.967529
2022-08-07T01:48:30.848Z,97.869873
2022-08-07T01:49:34.636Z,97.869873
2022-08-07T01:50:45.297Z,98.071289
2022-08-07T01:52:03.017Z,98.071289
2022-08-07T01:53:08.694Z,97.967529
2022-08-07T01:54:33.484Z,98.272705
2022-08-07T01:55:26.993Z,98.168945
2022-08-07T01:56:37.703Z,97.967529
2022-08-07T01:58:01.061Z,98.071289
2022-08-07T01:58:58.963Z,98.168945
2022-08-07T02:00:13.143Z,98.168945
2022-08-07T02:01:25.749Z,98.168945
2022-08-07T02:02:32.388Z,98.370361
2022-08-07T02:03:42.992Z,97.967529
2022-08-07T02:04:52.435Z,98.114014
2022-08-07T02:06:02.014Z,98.321533
2022-08-07T02:07:11.723Z,98.217773
2022-08-07T02:08:21.872Z,97.912598
2022-08-07T02:09:33.716Z,98.016357
2022-08-07T02:10:42.206Z,98.114014
2022-08-07T02:11:57.960Z,98.114014
2022-08-07T02:13:02.171Z,98.016357
2022-08-07T02:14:14.510Z,97.30835
2022-08-07T02:15:22.714Z,97.412109
2022-08-07T02:16:33.905Z,97.509766
2022-08-07T02:17:49.168Z,97.106934
2022-08-07T02:18:53.599Z,96.704102
2022-08-07T02:20:03.960Z,96.704102
2022-08-07T02:21:16.274Z,96.600342
2022-08-07T02:22:25.690Z,96.905518
2022-08-07T02:23:35.876Z,96.19751
2022-08-07T02:24:44.474Z,95.697021
2022-08-07T02:26:11.070Z,95.996094
2022-08-07T02:27:04.592Z,96.30127
2022-08-07T02:28:14.255Z,96.19751
2022-08-07T02:29:24.957Z,95.996094
2022-08-07T02:30:34.643Z,96.398926
2022-08-07T02:31:44.348Z,95.794678
2022-08-07T02:33:00.014Z,95.794678
2022-08-07T02:34:11.349Z,95.794678
2022-08-07T02:35:15.530Z,95.898438
2022-08-07T02:36:27.350Z,95.898438
2022-08-07T02:37:36.854Z,96.099854
2022-08-07T02:38:50.752Z,96.099854
2022-08-07T02:40:02.626Z,96.099854
2022-08-07T02:41:08.854Z,95.996094
2022-08-07T02:42:17.570Z,95.996094
2022-08-07T02:43:27.273Z,96.19751
2022-08-07T02:44:36.494Z,96.600342
2022-08-07T02:45:57.958Z,96.801758
2022-08-07T02:46:57.375Z,96.801758
2022-08-07T02:48:09.943Z,96.64917
2022-08-07T02:49:28.578Z,97.106934
2022-08-07T02:50:27.422Z,97.106934
2022-08-07T02:51:43.008Z,96.905518
2022-08-07T02:52:48.721Z,97.210693
2022-08-07T02:53:57.432Z,97.30835
2022-08-07T02:55:15.220Z,97.30835
2022-08-07T02:56:21.325Z,97.30835
2022-08-07T02:57:28.761Z,97.509766
2022-08-07T02:58:39.738Z,97.30835
2022-08-07T02:59:54.730Z,97.210693
2022-08-07T03:00:58.641Z,97.509766
2022-08-07T03:02:08.376Z,97.412109
2022-08-07T03:03:20.954Z,97.711182
2022-08-07T03:04:27.661Z,97.711182
2022-08-07T03:05:37.997Z,97.814941
2022-08-07T03:06:48.114Z,97.912598
2022-08-07T03:08:05.531Z,97.912598
2022-08-07T03:09:06.566Z,97.65625
2022-08-07T03:10:15.226Z,97.76001
2022-08-07T03:11:25.896Z,97.76001
2022-08-07T03:12:36.628Z,97.961426
2022-08-07T03:13:49.586Z,97.76001
2022-08-07T03:14:57.118Z,97.961426
2022-08-07T03:16:06.867Z,97.857666
2022-08-07T03:17:17.570Z,97.65625
2022-08-07T03:18:34.346Z,97.76001
2022-08-07T03:19:37.923Z,97.857666
2022-08-07T03:20:48.624Z,98.065186
2022-08-07T03:21:58.673Z,97.961426
2022-08-07T03:23:19.307Z,98.065186
2022-08-07T03:24:26.802Z,97.961426
2022-08-07T03:25:32.390Z,97.65625
2022-08-07T03:26:43.027Z,97.357178
2022-08-07T03:27:58.979Z,97.454834
2022-08-07T03:28:59.661Z,97.454834
2022-08-07T03:30:10.694Z,97.558594
2022-08-07T03:31:19.035Z,97.65625
2022-08-07T03:32:28.661Z,97.76001
2022-08-07T03:33:40.004Z,97.961426
2022-08-07T03:35:00.773Z,97.76001
2022-08-07T03:35:58.658Z,97.857666
2022-08-07T03:37:12.069Z,97.961426
2022-08-07T03:38:17.084Z,98.065186
2022-08-07T03:39:46.709Z,97.802734
2022-08-07T03:40:38.465Z,98.010254
2022-08-07T03:41:50.827Z,98.010254
2022-08-07T03:42:58.866Z,98.21167
2022-08-07T03:44:07.523Z,98.309326
2022-08-07T03:45:20.929Z,98.510742
2022-08-07T03:46:28.823Z,98.510742
2022-08-07T03:47:45.269Z,98.309326
2022-08-07T03:49:02.277Z,98.010254
2022-08-07T03:49:59.916Z,98.010254
2022-08-07T03:51:10.233Z,98.010254
2022-08-07T03:52:22.490Z,98.21167
2022-08-07T03:53:49.961Z,98.468018
2022-08-07T03:54:54.675Z,98.565674
2022-08-07T03:55:53.242Z,98.162842
2022-08-07T03:57:03.873Z,98.364258
2022-08-07T03:58:35.745Z,98.468018
2022-08-07T03:59:21.669Z,97.961426
2022-08-07T04:00:33.747Z,98.065186
2022-08-07T04:01:43.031Z,97.357178
2022-08-07T04:02:51.835Z,97.357178
2022-08-07T04:04:04.823Z,97.558594
2022-08-07T04:05:10.349Z,97.558594
2022-08-07T04:06:36.406Z,97.357178
2022-08-07T04:07:36.077Z,97.357178
2022-08-07T04:08:39.420Z,97.155762
2022-08-07T04:09:50.392Z,96.343994
2022-08-07T04:10:58.787Z,96.54541
2022-08-07T04:12:21.023Z,96.954346
2022-08-07T04:13:20.253Z,96.64917
2022-08-07T04:14:35.984Z,96.447754
2022-08-07T04:15:40.608Z,96.54541
2022-08-07T04:16:58.429Z,96.746826
2022-08-07T04:18:32.116Z,96.54541
2022-08-07T04:19:12.499Z,96.502686
2022-08-07T04:20:21.574Z,96.246338
2022-08-07T04:21:32.011Z,95.739746
2022-08-07T04:22:40.957Z,95.43457
2022-08-07T04:24:03.478Z,95.941162
2022-08-07T04:25:02.020Z,95.43457
2022-08-07T04:26:12.012Z,95.941162
2022-08-07T04:27:25.610Z,95.53833
2022-08-07T04:28:30.402Z,95.031738
2022-08-07T04:29:40.456Z,95.031738
2022-08-07T04:30:55.763Z,95.233154
2022-08-07T04:32:02.781Z,94.934082
2022-08-07T04:33:11.400Z,95.288086
2022-08-07T04:34:24.015Z,95.19043
2022-08-07T04:35:35.233Z,94.628906
2022-08-07T04:36:41.278Z,94.32373
2022-08-07T04:37:52.983Z,94.726562
2022-08-07T04:39:02.870Z,94.830322
2022-08-07T04:40:13.495Z,94.32373
2022-08-07T04:41:24.262Z,94.226074
2022-08-07T04:42:32.930Z,94.32373
2022-08-07T04:43:53.655Z,94.726562
2022-08-07T04:44:54.311Z,94.384766
2022-08-07T04:46:02.958Z,94.482422
2022-08-07T04:47:23.422Z,94.683838
2022-08-07T04:48:23.287Z,94.482422
2022-08-07T04:49:37.487Z,93.774414
2022-08-07T04:50:43.634Z,93.878174
2022-08-07T04:51:52.340Z,93.273926
2022-08-07T04:53:03.065Z,93.170166
2022-08-07T04:54:10.752Z,93.371582
2022-08-07T04:58:08.209Z,93.426514
2022-08-07T04:58:08.476Z,93.170166
2022-08-07T04:58:08.710Z,93.273926
2022-08-07T04:59:16.829Z,92.822266
2022-08-07T05:00:08.095Z,92.822266
2022-08-07T05:01:13.293Z,93.023682
2022-08-07T05:02:23.562Z,92.724609
2022-08-07T05:03:38.717Z,92.62085
2022-08-07T05:04:43.846Z,92.523193
2022-08-07T05:05:54.608Z,92.321777
2022-08-07T05:07:09.758Z,91.51001
2022-08-07T05:08:12.957Z,91.912842
2022-08-07T05:09:28.123Z,92.218018
2022-08-07T05:10:32.442Z,91.668701
2022-08-07T05:11:56.656Z,91.772461
2022-08-07T05:12:55.223Z,91.265869
2022-08-07T05:14:45.227Z,90.863037
2022-08-07T05:15:14.156Z,90.966797
2022-08-07T05:16:24.968Z,90.966797
2022-08-07T05:17:50.673Z,90.765381
2022-08-07T05:18:45.428Z,90.362549
2022-08-07T05:19:55.112Z,89.855957
2022-08-07T05:21:04.766Z,89.996338
2022-08-07T05:22:12.554Z,89.996338
2022-08-07T05:23:29.169Z,89.794922
2022-08-07T05:24:39.631Z,90.057373
2022-08-07T05:26:04.146Z,90.258789
2022-08-07T05:26:54.459Z,89.550781
2022-08-07T05:28:16.619Z,89.550781
2022-08-07T05:29:16.003Z,89.294434
2022-08-07T05:30:30.073Z,89.39209
2022-08-07T05:31:37.873Z,89.697266
2022-08-07T05:32:45.000Z,89.294434
2022-08-07T05:34:01.654Z,88.787842
2022-08-07T05:35:04.660Z,90.057373
2022-08-07T05:36:22.293Z,89.550781
2022-08-07T05:37:25.615Z,89.050293
2022-08-07T05:38:58.547Z,88.946533
2022-08-07T05:40:07.259Z,88.946533
2022-08-07T05:40:56.218Z,89.508057
2022-08-07T05:42:08.825Z,89.007568
2022-08-07T05:43:16.569Z,88.903809
2022-08-07T05:44:29.496Z,87.695312
2022-08-07T05:45:46.379Z,87.29248
2022-08-07T05:46:51.083Z,87.597656
2022-08-07T05:48:01.267Z,88.000488
2022-08-07T05:49:09.053Z,87.091064
2022-08-07T05:50:18.813Z,87.756348
2022-08-07T05:51:25.685Z,87.249756
2022-08-07T05:52:36.400Z,86.846924
2022-08-07T05:54:08.961Z,86.846924
2022-08-07T05:54:58.492Z,85.638428
2022-08-07T05:56:06.861Z,85.839844
2022-08-07T05:57:15.082Z,86.14502
2022-08-07T05:58:30.343Z,85.681152
2022-08-07T05:59:38.835Z,85.681152
2022-08-07T06:00:46.294Z,85.778809
2022-08-07T06:01:55.850Z,86.547852
2022-08-07T06:03:06.449Z,86.242676
2022-08-07T06:04:17.397Z,85.742188
2022-08-07T06:05:28.092Z,85.339355
2022-08-07T06:06:35.509Z,85.839844
2022-08-07T06:08:09.023Z,86.04126
2022-08-07T06:08:56.934Z,86.242676
2022-08-07T06:10:11.307Z,85.437012
2022-08-07T06:11:18.334Z,85.742188
2022-08-07T06:12:27.755Z,85.498047
2022-08-07T06:14:11.099Z,84.393311
2022-08-07T06:14:49.376Z,83.990479
2022-08-07T06:15:57.065Z,83.990479
2022-08-07T06:17:07.151Z,84.692383
2022-08-07T06:18:14.484Z,83.789062
2022-08-07T06:19:47.730Z,83.587646
2022-08-07T06:20:50.185Z,83.947754
2022-08-07T06:22:12.199Z,82.739258
2022-08-07T06:23:02.585Z,83.648682
2022-08-07T06:24:37.027Z,83.14209
2022-08-07T06:25:17.654Z,83.14209
2022-08-07T06:26:27.899Z,83.14209
2022-08-07T06:27:44.567Z,83.544922
2022-08-07T06:28:46.731Z,83.843994
2022-08-07T06:29:57.396Z,82.598877
2022-08-07T06:31:06.136Z,82.397461
2022-08-07T06:32:15.886Z,82.098389
2022-08-07T06:33:24.589Z,83.605957
2022-08-07T06:34:33.351Z,82.702637
2022-08-07T06:35:45.991Z,82.299805
2022-08-07T06:36:54.687Z,82.397461
2022-08-07T06:38:04.534Z,81.994629
2022-08-07T06:40:14.056Z,82.299805
2022-08-07T06:40:27.878Z,82.055664
2022-08-07T06:41:59.217Z,82.159424
2022-08-07T06:42:47.242Z,82.25708
2022-08-07T06:43:59.566Z,81.756592
2022-08-07T06:45:07.623Z,81.256104
2022-08-07T06:46:20.358Z,82.159424
2022-08-07T06:47:28.036Z,82.055664
2022-08-07T06:48:38.642Z,81.054688
2022-08-07T06:49:51.421Z,81.256104
2022-08-07T06:51:00.019Z,81.518555
2022-08-07T06:52:10.274Z,81.213379
2022-08-07T06:54:12.275Z,80.712891
2022-08-07T06:55:30.344Z,80.212402
2022-08-07T06:55:47.825Z,81.274414
2022-08-07T06:56:51.555Z,80.474854
2022-08-07T06:58:01.228Z,80.535889
2022-08-07T07:00:11.229Z,80.133057
2022-08-07T07:00:22.648Z,78.588867
2022-08-07T07:01:33.050Z,78.692627
2022-08-07T07:02:48.259Z,78.186035
2022-08-07T07:03:55.013Z,78.656006
2022-08-07T07:05:03.405Z,78.45459
2022-08-07T07:06:13.142Z,77.752686
2022-08-07T07:07:58.880Z,77.410889
2022-08-07T07:08:34.055Z,77.111816
2022-08-07T07:09:44.332Z,76.812744
2022-08-07T07:10:55.060Z,76.373291
2022-08-07T07:12:07.372Z,76.239014
2022-08-07T07:13:14.436Z,76.239014
2022-08-07T07:14:25.098Z,74.932861
2022-08-07T07:15:37.629Z,74.798584
2022-08-07T07:16:50.135Z,75.201416
2022-08-07T07:17:56.101Z,74.560547
2022-08-07T07:19:11.319Z,73.260498
2022-08-07T07:20:16.510Z,72.827148
2022-08-07T07:21:27.133Z,72.229004
2022-08-07T07:22:40.083Z,73.693848
2022-08-07T07:24:05.854Z,72.692871
2022-08-07T07:25:03.184Z,72.290039
2022-08-07T07:26:33.755Z,70.6604
2022-08-07T07:27:19.835Z,71.960449
2022-08-07T07:28:42.873Z,72.125244
2022-08-07T07:29:57.332Z,71.325684
2022-08-07T07:30:51.071Z,70.788574
2022-08-07T07:32:00.745Z,69.42749
2022-08-07T07:33:11.297Z,69.622803
2022-08-07T07:34:20.159Z,70.123291
2022-08-07T07:35:33.453Z,69.824219
2022-08-07T07:36:40.625Z,69.689941
2022-08-07T07:37:59.292Z,69.494629
2022-08-07T07:39:00.902Z,68.725586
2022-08-07T07:40:15.045Z,67.926025
2022-08-07T07:41:21.266Z,69.32373
2022-08-07T07:42:32.684Z,69.226074
2022-08-07T07:43:47.595Z,68.927002
2022-08-07T07:44:51.365Z,68.52417
2022-08-07T07:46:36.042Z,69.195557
2022-08-07T07:47:16.148Z,67.993164
2022-08-07T07:48:24.213Z,68.792725
2022-08-07T07:50:31.955Z,67.596436
2022-08-07T07:50:42.912Z,68.19458
2022-08-07T07:51:57.362Z,68.762207
2022-08-07T07:53:01.277Z,67.962646
2022-08-07T07:54:08.959Z,67.86499
2022-08-07T07:55:17.711Z,67.962646
2022-08-07T07:56:29.886Z,67.034912
2022-08-07T07:57:44.282Z,67.333984
2022-08-07T07:58:48.817Z,67.333984
2022-08-07T07:59:59.496Z,66.729736
2022-08-07T08:02:01.035Z,67.199707
2022-08-07T08:02:22.783Z,67.199707
2022-08-07T08:04:05.762Z,66.601562
2022-08-07T08:04:42.180Z,66.802979
2022-08-07T08:05:54.604Z,65.673828
2022-08-07T08:07:02.745Z,64.941406
2022-08-07T08:08:32.229Z,65.240479
2022-08-07T08:09:23.237Z,64.044189
2022-08-07T08:10:35.484Z,63.848877
2022-08-07T08:11:47.618Z,64.044189
2022-08-07T08:12:59.155Z,62.554932
2022-08-07T08:14:04.674Z,62.854004
2022-08-07T08:15:15.336Z,64.910889
2022-08-07T08:16:25.429Z,64.117432
2022-08-07T08:17:57.049Z,62.322998
2022-08-07T08:18:46.454Z,63.220215
2022-08-07T08:20:16.480Z,62.62207
2022-08-07T08:21:07.451Z,63.452148
2022-08-07T08:22:17.506Z,63.916016
2022-08-07T08:23:28.194Z,63.018799
2022-08-07T08:24:45.289Z,62.420654
2022-08-07T08:25:48.935Z,63.647461
2022-08-07T08:26:59.162Z,64.044189
2022-08-07T08:28:09.865Z,63.616943
2022-08-07T08:29:18.527Z,64.611816
2022-08-07T08:30:28.218Z,64.581299
2022-08-07T08:31:59.439Z,63.757324
2022-08-07T08:32:49.095Z,62.82959
2022-08-07T08:33:57.862Z,61.242676
2022-08-07T08:35:06.103Z,62.530518
2022-08-07T08:36:15.810Z,61.938477
2022-08-07T08:38:00.139Z,61.566162
2022-08-07T08:38:40.415Z,62.664795
2022-08-07T08:39:54.792Z,62.860107
2022-08-07T08:40:57.033Z,62.133789
2022-08-07T08:42:07.225Z,61.535645
2022-08-07T08:43:16.883Z,62.133789
2022-08-07T08:44:29.510Z,61.04126
2022-08-07T08:45:41.457Z,59.918213
2022-08-07T08:46:49.236Z,61.706543
2022-08-07T08:47:58.926Z,60.644531
2022-08-07T08:49:09.780Z,61.938477
2022-08-07T08:50:19.263Z,62.402344
2022-08-07T08:51:50.088Z,60.443115
2022-08-07T08:52:40.719Z,61.535645
2022-08-07T08:53:49.419Z,61.212158
2022-08-07T08:54:59.076Z,60.046387
2022-08-07T08:56:08.819Z,60.546875
2022-08-07T08:57:18.587Z,60.644531
2022-08-07T08:58:29.259Z,61.834717
2022-08-07T08:59:41.945Z,60.839844
2022-08-07T09:00:51.669Z,61.804199
2022-08-07T09:01:59.483Z,61.804199
2022-08-07T09:03:08.213Z,60.882568
2022-08-07T09:04:18.834Z,61.279297
2022-08-07T09:05:31.919Z,60.882568
2022-08-07T09:06:38.190Z,60.388184
2022-08-07T09:07:57.927Z,59.594727
2022-08-07T09:08:58.651Z,59.124756
2022-08-07T09:10:09.323Z,60.089111
2022-08-07T09:11:24.125Z,59.594727
2022-08-07T09:12:30.725Z,60.516357
2022-08-07T09:13:38.403Z,60.583496
2022-08-07T09:14:50.457Z,60.186768
2022-08-07T09:16:20.874Z,59.661865
2022-08-07T09:17:08.379Z,58.569336
2022-08-07T09:18:22.405Z,58.172607
2022-08-07T09:19:44.622Z,58.374023
2022-08-07T09:20:39.514Z,58.47168
2022-08-07T09:21:58.380Z,57.580566
2022-08-07T09:24:30.235Z,57.873535
2022-08-07T09:24:30.269Z,59.16748
2022-08-07T09:25:21.406Z,59.136963
2022-08-07T09:26:32.127Z,56.854248
2022-08-07T09:27:54.966Z,57.873535
2022-08-07T09:29:24.649Z,58.074951
2022-08-07T09:30:08.222Z,57.873535
2022-08-07T09:31:15.392Z,57.702637
2022-08-07T09:32:23.676Z,58.099365
2022-08-07T09:33:41.456Z,58.300781
2022-08-07T09:34:42.034Z,58.203125
2022-08-07T09:36:01.472Z,58.099365
2022-08-07T09:37:03.456Z,58.172607
2022-08-07T09:38:13.232Z,58.642578
2022-08-07T09:39:27.573Z,58.642578
2022-08-07T09:40:30.692Z,58.319092
2022-08-07T09:41:43.113Z,57.818604
2022-08-07T09:42:51.350Z,56.604004
2022-08-07T09:44:03.758Z,57.366943
2022-08-07T09:47:20.159Z,55.487061
2022-08-07T09:47:26.633Z,56.280518
2022-08-07T09:47:52.983Z,56.109619
2022-08-07T09:48:55.762Z,56.506348
2022-08-07T09:50:00.339Z,55.340576
2022-08-07T09:51:05.431Z,57.922363
2022-08-07T09:52:33.966Z,58.416748
2022-08-07T09:53:25.246Z,58.215332
2022-08-07T09:54:35.953Z,57.196045
2022-08-07T09:56:02.568Z,56.433105
2022-08-07T09:56:56.256Z,57.196045
2022-08-07T09:58:05.957Z,57.269287
2022-08-07T09:59:18.874Z,56.646729
2022-08-07T10:00:29.983Z,56.622314
2022-08-07T10:01:50.889Z,55.853271
2022-08-07T10:02:55.580Z,55.560303
2022-08-07T10:04:04.538Z,55.957031
2022-08-07T10:05:12.303Z,56.451416
2022-08-07T10:06:19.056Z,54.937744
2022-08-07T10:07:31.532Z,56.323242
2022-08-07T10:08:39.329Z,55.999756
2022-08-07T10:09:59.500Z,55.603027
2022-08-07T10:11:17.470Z,55.206299
2022-08-07T10:12:16.915Z,54.486084
2022-08-07T10:13:30.008Z,54.290771
2022-08-07T10:14:31.232Z,54.980469
2022-08-07T10:15:44.268Z,54.290771
2022-08-07T10:16:50.172Z,54.589844
2022-08-07T10:18:01.977Z,55.578613
2022-08-07T10:19:11.198Z,53.674316
2022-08-07T10:20:20.562Z,53.4729
2022-08-07T10:21:50.914Z,55.352783
2022-08-07T10:22:39.566Z,54.437256
2022-08-07T10:24:04.562Z,54.510498
2022-08-07T10:25:00.987Z,52.038574
2022-08-07T10:26:10.708Z,52.655029
2022-08-07T10:27:20.465Z,53.942871
2022-08-07T10:28:31.091Z,52.484131
2022-08-07T10:29:43.412Z,52.783203
2022-08-07T10:30:51.490Z,52.685547
2022-08-07T10:32:00.496Z,53.869629
2022-08-07T10:33:12.963Z,54.040527
2022-08-07T10:34:27.008Z,53.051758
2022-08-07T10:35:53.737Z,53.814697
2022-08-07T10:36:42.143Z,54.284668
2022-08-07T10:38:00.797Z,53.570557
2022-08-07T10:39:04.341Z,53.369141
2022-08-07T10:40:13.212Z,51.89209
2022-08-07T10:41:47.589Z,52.282715
2022-08-07T10:42:36.397Z,51.226807
2022-08-07T10:43:44.233Z,53.222656
2022-08-07T10:44:54.528Z,52.459717
2022-08-07T10:46:02.748Z,53.546143
2022-08-07T10:47:11.671Z,54.534912
2022-08-07T10:48:20.068Z,52.856445
2022-08-07T10:49:45.500Z,53.149414
2022-08-07T10:50:41.464Z,51.965332
2022-08-07T10:51:57.869Z,53.277588
2022-08-07T10:53:05.323Z,54.632568
2022-08-07T10:54:12.478Z,54.040527
2022-08-07T10:55:26.898Z,53.918457
2022-08-07T10:56:32.986Z,52.703857
2022-08-07T10:57:41.630Z,53.814697
2022-08-07T10:58:59.398Z,53.643799
2022-08-07T11:00:01.950Z,53.546143
2022-08-07T11:01:12.313Z,54.833984
2022-08-07T11:02:27.468Z,53.076172
2022-08-07T11:03:37.541Z,54.290771
2022-08-07T11:04:40.795Z,53.057861
2022-08-07T11:05:51.328Z,55.059814
2022-08-07T11:06:59.095Z,55.187988
2022-08-07T11:08:10.031Z,56.079102
2022-08-07T11:10:06.928Z,55.187988
2022-08-07T11:10:30.069Z,56.47583
2022-08-07T11:11:38.728Z,55.981445
2022-08-07T11:12:49.102Z,55.584717
2022-08-07T11:14:43.213Z,53.826904
2022-08-07T11:15:14.498Z,55.609131
2022-08-07T11:16:20.439Z,54.620361
2022-08-07T11:17:43.033Z,56.506348
2022-08-07T11:18:41.803Z,55.584717
2022-08-07T11:19:52.456Z,55.26123
2022-08-07T11:21:02.141Z,53.875732
2022-08-07T11:22:19.004Z,55.560303
2022-08-07T11:23:26.389Z,54.864502
2022-08-07T11:24:33.257Z,55.560303
2022-08-07T11:25:48.335Z,55.26123
2022-08-07T11:26:54.524Z,55.755615
2022-08-07T11:28:05.312Z,55.358887
2022-08-07T11:29:41.492Z,56.12793
2022-08-07T11:30:39.282Z,55.529785
2022-08-07T11:31:37.292Z,54.516602
2022-08-07T11:32:47.967Z,56.268311
2022-08-07T11:33:59.991Z,54.785156
2022-08-07T11:35:09.612Z,55.505371
2022-08-07T11:36:20.503Z,54.241943
2022-08-07T11:37:38.225Z,55.236816
2022-08-07T11:38:40.470Z,55.133057
2022-08-07T11:39:59.705Z,55.236816
2022-08-07T11:40:58.905Z,56.225586
2022-08-07T11:42:08.617Z,54.119873
2022-08-07T11:43:19.286Z,56.298828
2022-08-07T11:44:27.981Z,53.527832
2022-08-07T11:45:38.627Z,56.298828
2022-08-07T11:46:48.727Z,53.723145
2022-08-07T11:48:02.130Z,55.236816
2022-08-07T11:49:28.965Z,54.370117
2022-08-07T11:50:30.940Z,55.285645
2022-08-07T11:51:41.093Z,55.584717
2022-08-07T11:52:41.615Z,54.992676
2022-08-07T11:54:00.506Z,55.059814
2022-08-07T11:55:01.965Z,55.957031
2022-08-07T11:56:25.369Z,54.541016
2022-08-07T11:57:58.398Z,55.731201
2022-08-07T11:58:33.991Z,54.937744
2022-08-07T12:00:08.605Z,53.22876
2022-08-07T12:01:01.750Z,53.155518
2022-08-07T12:02:05.277Z,52.929688
2022-08-07T12:03:42.499Z,54.095459
2022-08-07T12:04:26.626Z,52.484131
2022-08-07T12:05:41.070Z,50.311279
2022-08-07T12:06:51.871Z,51.495361
2022-08-07T12:08:00.591Z,53.076172
2022-08-07T12:09:07.419Z,51.965332
2022-08-07T12:10:18.106Z,52.459717
2022-08-07T12:11:32.170Z,51.843262
2022-08-07T12:12:37.481Z,51.251221
2022-08-07T12:13:47.670Z,52.111816
2022-08-07T12:14:56.325Z,51.000977
2022-08-07T12:16:09.013Z,50.140381
2022-08-07T12:17:19.664Z,50.561523
2022-08-07T12:18:29.607Z,50.854492
2022-08-07T12:19:56.300Z,49.176025
2022-08-07T12:20:49.176Z,50.65918
2022-08-07T12:22:36.730Z,50.952148
2022-08-07T12:23:09.667Z,51.275635
2022-08-07T12:24:37.168Z,51.275635
2022-08-07T12:26:00.691Z,51.867676
2022-08-07T12:26:46.313Z,50.976562
2022-08-07T12:28:04.243Z,50.976562
2022-08-07T12:29:01.258Z,51.641846
2022-08-07T12:30:09.944Z,51.617432
2022-08-07T12:31:22.525Z,51.593018
2022-08-07T12:32:29.350Z,48.931885
2022-08-07T12:33:55.817Z,50.408936
2022-08-07T12:34:53.368Z,49.523926
2022-08-07T12:36:02.187Z,50.018311
2022-08-07T12:37:16.732Z,50.115967
2022-08-07T12:38:29.351Z,50.286865
2022-08-07T12:39:42.183Z,50.286865
2022-08-07T12:40:47.035Z,48.687744
2022-08-07T12:41:52.838Z,48.712158
2022-08-07T12:43:03.695Z,50.360107
2022-08-07T12:44:17.074Z,49.871826
2022-08-07T12:45:23.899Z,49.255371
2022-08-07T12:46:34.217Z,48.54126
2022-08-07T12:47:44.255Z,48.883057
2022-08-07T12:48:55.061Z,49.694824
2022-08-07T12:50:04.408Z,50.585938
2022-08-07T12:51:17.176Z,49.871826
2022-08-07T12:52:22.998Z,47.900391
2022-08-07T12:54:02.447Z,50.384521
2022-08-07T12:54:42.297Z,50.634766
2022-08-07T12:56:02.174Z,49.822998
2022-08-07T12:57:07.216Z,48.638916
2022-08-07T12:58:14.372Z,49.645996
2022-08-07T12:59:24.274Z,49.353027
2022-08-07T13:00:36.109Z,49.279785
2022-08-07T13:01:43.507Z,48.883057
2022-08-07T13:02:54.088Z,49.79248
2022-08-07T13:04:04.601Z,48.931885
2022-08-07T13:05:15.230Z,50.708008
2022-08-07T13:06:27.372Z,48.931885
2022-08-07T13:08:13.211Z,49.005127
2022-08-07T13:08:44.468Z,49.102783
2022-08-07T13:10:18.807Z,49.597168
2022-08-07T13:11:03.861Z,48.712158
2022-08-07T13:12:15.296Z,50.213623
2022-08-07T13:13:46.531Z,48.907471
2022-08-07T13:14:31.937Z,48.217773
2022-08-07T13:15:41.658Z,48.022461
2022-08-07T13:16:51.353Z,48.217773
2022-08-07T13:18:01.134Z,50.091553
2022-08-07T13:19:11.584Z,48.7854
2022-08-07T13:20:21.667Z,47.998047
2022-08-07T13:21:37.973Z,49.200439
2022-08-07T13:22:42.118Z,49.053955